Time;durP1;ratioP1;P1;durP2;ratioP2;P2;SDS_P1;SDS_P2;PMS_P1;PMS_P2;Temp;Humidity;BMP_temperature;BMP_pressure;BME280_temperature;BME280_humidity;BME280_pressure;Samples;Min_cycle;Max_cycle;Signal;HPM_P1;HPM_P2
2021/10/03 00:00:59;;;;;;;5.10;4.57;;;;;;;19.70;66.09;95490.34;4975385;28;20432;-58
2021/10/03 00:03:26;;;;;;;5.27;4.87;;;;;;;19.54;66.42;95481.13;4975053;28;20451;-54
2021/10/03 00:05:54;;;;;;;6.93;5.23;;;;;;;19.26;67.61;95482.28;4975086;28;20433;-54
2021/10/03 00:08:20;;;;;;;5.37;4.97;;;;;;;19.26;67.55;95475.09;4975218;28;20885;-58
2021/10/03 00:10:46;;;;;;;5.50;5.10;;;;;;;19.28;67.38;95474.78;4975118;28;20468;-59
2021/10/03 00:13:12;;;;;;;6.03;5.37;;;;;;;19.19;67.14;95474.72;4974913;28;20414;-54
2021/10/03 00:15:38;;;;;;;5.87;5.27;;;;;;;19.12;67.87;95462.91;4973951;28;20452;-58
2021/10/03 00:18:06;;;;;;;5.90;5.40;;;;;;;19.21;67.43;95477.09;4975169;28;20181;-54
2021/10/03 00:20:32;;;;;;;5.97;5.37;;;;;;;19.16;67.72;95479.88;4974954;28;20413;-54
2021/10/03 00:22:58;;;;;;;5.50;5.00;;;;;;;19.19;67.60;95468.59;4974955;28;20421;-58
2021/10/03 00:25:26;;;;;;;6.73;5.60;;;;;;;19.03;67.83;95483.34;4974807;28;20524;-58
2021/10/03 00:27:53;;;;;;;6.00;5.40;;;;;;;19.06;68.23;95488.88;4975108;28;20170;-54
2021/10/03 00:30:20;;;;;;;6.60;5.57;;;;;;;18.95;68.35;95490.16;4974677;28;20947;-58
2021/10/03 00:32:45;;;;;;;5.70;5.20;;;;;;;18.82;68.72;95492.88;4974073;28;20409;-54
2021/10/03 00:35:12;;;;;;;5.00;4.60;;;;;;;18.76;68.67;95486.88;4973467;28;20536;-58
2021/10/03 00:37:38;;;;;;;4.90;4.50;;;;;;;18.68;69.07;95489.44;4974672;28;20194;-59
2021/10/03 00:40:04;;;;;;;4.83;4.33;;;;;;;18.48;69.63;95487.97;4974899;28;20413;-54
2021/10/03 00:42:29;;;;;;;5.57;5.07;;;;;;;18.55;69.60;95482.25;4974931;28;20430;-54
2021/10/03 00:44:55;;;;;;;5.70;4.90;;;;;;;18.46;69.44;95482.94;4974394;28;20835;-54
2021/10/03 00:47:20;;;;;;;4.93;4.53;;;;;;;18.59;69.17;95476.03;4975344;28;20174;-58
2021/10/03 00:49:46;;;;;;;5.60;4.90;;;;;;;18.58;69.18;95476.34;4974794;28;20604;-54
2021/10/03 00:52:11;;;;;;;4.73;4.33;;;;;;;18.63;68.61;95471.69;4974725;28;20630;-54
2021/10/03 00:54:37;;;;;;;5.07;4.50;;;;;;;18.63;68.45;95471.69;4974365;28;20204;-54
2021/10/03 00:57:03;;;;;;;5.10;4.60;;;;;;;18.63;68.47;95469.03;4974614;28;20589;-54
2021/10/03 00:59:30;;;;;;;4.40;4.00;;;;;;;18.70;68.10;95471.31;4974726;28;20637;-58
2021/10/03 01:01:56;;;;;;;6.70;4.20;;;;;;;18.70;67.87;95466.00;4974915;28;20422;-53
2021/10/03 01:04:22;;;;;;;4.53;4.10;;;;;;;18.66;67.98;95459.69;4974403;28;20439;-54
2021/10/03 01:06:47;;;;;;;4.77;4.37;;;;;;;18.76;67.50;95456.78;4974474;28;20991;-54
2021/10/03 01:09:12;;;;;;;4.70;4.30;;;;;;;18.66;67.59;95460.44;4974528;28;20261;-54
2021/10/03 01:11:38;;;;;;;4.97;4.53;;;;;;;18.85;66.63;95453.13;4974535;28;20280;-58
2021/10/03 01:14:04;;;;;;;5.30;4.40;;;;;;;18.84;66.36;95446.22;4974075;28;20225;-58
2021/10/03 01:16:29;;;;;;;4.73;4.23;;;;;;;18.98;66.36;95436.34;4974300;28;20252;-54
2021/10/03 01:18:58;;;;;;;4.13;3.77;;;;;;;19.09;65.95;95439.56;4974377;28;20265;-54
2021/10/03 01:21:24;;;;;;;4.90;4.50;;;;;;;19.15;65.76;95435.69;4974342;28;20216;-58
2021/10/03 01:23:54;;;;;;;5.37;4.80;;;;;;;19.29;65.28;95431.88;4974019;28;20413;-54
2021/10/03 01:26:19;;;;;;;4.50;4.20;;;;;;;19.39;65.27;95433.53;4974389;28;20438;-54
2021/10/03 01:28:45;;;;;;;6.33;3.87;;;;;;;19.46;64.71;95439.22;4974402;28;20422;-54
2021/10/03 01:31:10;;;;;;;4.97;4.57;;;;;;;19.46;64.04;95431.22;4974408;28;20264;-58
2021/10/03 01:33:37;;;;;;;4.63;4.23;;;;;;;19.32;63.93;95427.84;4974086;28;20224;-54
2021/10/03 01:36:06;;;;;;;4.53;4.10;;;;;;;19.36;63.87;95429.59;4974392;28;20218;-58
2021/10/03 01:38:33;;;;;;;5.03;4.63;;;;;;;19.36;63.87;95436.81;4973067;28;20924;-54
2021/10/03 01:40:59;;;;;;;4.93;4.53;;;;;;;19.38;63.73;95430.09;4974244;28;20465;-58
2021/10/03 01:43:24;;;;;;;4.67;4.20;;;;;;;19.54;63.00;95424.38;4974232;28;20952;-54
2021/10/03 01:45:50;;;;;;;4.00;3.60;;;;;;;19.57;63.23;95426.44;4977724;28;20189;-58
2021/10/03 01:48:24;;;;;;;4.93;4.53;;;;;;;19.50;63.09;95424.19;4977963;28;20533;-58
2021/10/03 01:51:00;;;;;;;4.57;4.20;;;;;;;19.58;62.73;95412.81;4977833;28;20676;-54
2021/10/03 01:53:31;;;;;;;4.80;4.40;;;;;;;19.53;62.69;95414.81;4977422;28;20977;-54
2021/10/03 01:55:58;;;;;;;5.93;5.27;;;;;;;19.43;62.62;95407.84;4977755;28;20429;-58
2021/10/03 01:58:28;;;;;;;4.40;4.10;;;;;;;19.45;62.52;95392.34;4977508;28;20888;-58
2021/10/03 02:00:58;;;;;;;5.03;4.57;;;;;;;19.43;62.71;95400.66;4977836;28;20796;-58
2021/10/03 02:03:23;;;;;;;4.97;4.47;;;;;;;19.52;62.35;95395.34;4977299;28;20412;-58
2021/10/03 02:05:49;;;;;;;4.50;4.20;;;;;;;19.56;62.96;95393.66;4977518;28;20512;-59
2021/10/03 02:08:16;;;;;;;4.63;4.23;;;;;;;19.54;62.63;95395.84;4977448;28;20205;-58
2021/10/03 02:10:44;;;;;;;4.63;4.23;;;;;;;19.64;62.55;95392.91;4977235;28;20508;-58
2021/10/03 02:13:10;;;;;;;4.27;3.97;;;;;;;19.56;61.80;95398.19;4976868;28;20409;-58
2021/10/03 02:15:38;;;;;;;4.27;3.87;;;;;;;19.45;61.73;95398.47;4975927;28;20960;-58
2021/10/03 02:18:06;;;;;;;5.37;4.40;;;;;;;19.51;60.92;95390.34;4977151;28;20424;-58
2021/10/03 02:20:32;;;;;;;6.53;3.73;;;;;;;19.42;60.89;95390.28;4977376;28;20480;-58
2021/10/03 02:22:58;;;;;;;3.83;3.53;;;;;;;19.58;60.59;95388.03;4976806;28;20897;-58
2021/10/03 02:25:23;;;;;;;3.80;3.50;;;;;;;19.61;60.58;95384.72;4977416;28;20460;-54
2021/10/03 02:27:48;;;;;;;4.33;3.93;;;;;;;19.62;60.27;95384.44;4976968;28;20174;-54
2021/10/03 02:30:14;;;;;;;3.73;3.43;;;;;;;19.65;60.46;95367.84;4976972;28;20208;-58
2021/10/03 02:32:39;;;;;;;4.33;3.90;;;;;;;19.67;61.05;95376.31;4976846;28;20274;-58
2021/10/03 02:35:09;;;;;;;4.73;3.70;;;;;;;19.65;59.78;95370.50;4976918;28;20198;-54
2021/10/03 02:37:35;;;;;;;4.37;3.97;;;;;;;19.62;60.23;95365.00;4976823;28;20189;-54
2021/10/03 02:40:00;;;;;;;4.10;3.80;;;;;;;19.67;60.58;95362.19;4976845;28;20908;-54
2021/10/03 02:42:26;;;;;;;3.93;3.63;;;;;;;19.74;60.07;95357.19;4976901;28;20414;-54
2021/10/03 02:44:51;;;;;;;4.53;4.23;;;;;;;19.73;59.64;95353.75;4976466;28;20276;-58
2021/10/03 02:47:17;;;;;;;3.73;3.43;;;;;;;19.66;59.45;95353.41;4976782;28;20170;-54
2021/10/03 02:49:44;;;;;;;4.13;3.73;;;;;;;19.65;59.03;95351.84;4976820;28;20290;-54
2021/10/03 02:52:11;;;;;;;3.57;3.27;;;;;;;19.59;59.28;95352.25;4976792;28;20181;-54
2021/10/03 02:54:38;;;;;;;6.20;4.23;;;;;;;19.60;59.05;95351.97;4976115;28;20440;-58
2021/10/03 02:57:05;;;;;;;4.13;3.70;;;;;;;19.56;58.76;95345.69;4976274;28;20545;-58
2021/10/03 02:59:30;;;;;;;4.07;3.77;;;;;;;19.60;58.41;95337.88;4976935;28;20410;-54
2021/10/03 03:01:56;;;;;;;3.97;3.50;;;;;;;19.56;58.46;95332.38;4976589;28;20914;-54
2021/10/03 03:04:22;;;;;;;4.67;3.93;;;;;;;19.55;58.47;95336.09;4976067;28;20198;-58
2021/10/03 03:06:47;;;;;;;5.10;3.93;;;;;;;19.57;57.59;95347.25;4976355;28;20201;-54
2021/10/03 03:09:12;;;;;;;3.70;3.50;;;;;;;19.51;57.80;95345.03;4976557;28;20174;-58
2021/10/03 03:11:38;;;;;;;3.77;3.47;;;;;;;19.50;57.31;95333.56;4976356;28;20533;-58
2021/10/03 03:14:04;;;;;;;3.50;3.30;;;;;;;19.47;57.87;95331.53;4974735;28;20645;-58
2021/10/03 03:16:29;;;;;;;3.83;3.50;;;;;;;19.41;57.31;95335.41;4976244;28;20205;-54
2021/10/03 03:18:55;;;;;;;3.80;3.50;;;;;;;19.54;57.06;95331.09;4976323;28;20174;-54
2021/10/03 03:21:20;;;;;;;3.67;3.37;;;;;;;19.48;56.91;95327.75;4974773;28;20193;-54
2021/10/03 03:23:46;;;;;;;3.77;3.40;;;;;;;19.49;57.44;95330.13;4975944;28;20170;-58
2021/10/03 03:26:11;;;;;;;3.63;3.33;;;;;;;19.58;56.61;95335.50;4975865;28;20565;-59
2021/10/03 03:28:37;;;;;;;3.00;2.80;;;;;;;19.59;56.71;95321.06;4975974;28;20526;-58
2021/10/03 03:31:02;;;;;;;4.13;3.50;;;;;;;19.61;57.52;95318.91;4976025;28;20193;-58
2021/10/03 03:33:28;;;;;;;3.10;2.90;;;;;;;19.53;57.23;95318.88;4975613;28;20249;-54
2021/10/03 03:35:53;;;;;;;3.33;3.03;;;;;;;19.54;56.36;95307.88;4975886;28;20190;-58
2021/10/03 03:38:19;;;;;;;3.47;3.17;;;;;;;19.58;56.69;95313.41;4975845;28;20182;-58
2021/10/03 03:40:45;;;;;;;3.90;3.60;;;;;;;19.53;56.49;95321.53;4975945;28;20685;-58
2021/10/03 03:43:10;;;;;;;3.20;3.00;;;;;;;19.51;56.61;95315.72;4975391;28;20178;-58
2021/10/03 03:45:36;;;;;;;3.73;3.43;;;;;;;19.52;56.38;95311.94;4975612;28;20190;-54
2021/10/03 03:48:02;;;;;;;3.83;3.53;;;;;;;19.58;56.44;95311.53;4975724;28;20174;-58
2021/10/03 03:50:28;;;;;;;3.20;3.00;;;;;;;19.68;56.58;95321.91;4975656;28;20198;-58
2021/10/03 03:52:54;;;;;;;3.73;3.53;;;;;;;19.66;56.75;95317.97;4975131;28;20935;-54
2021/10/03 03:55:19;;;;;;;3.60;3.30;;;;;;;19.61;55.71;95321.56;4975420;28;20432;-53
2021/10/03 03:57:45;;;;;;;3.40;3.20;;;;;;;19.63;55.79;95313.25;4975790;28;20197;-54
2021/10/03 04:00:11;;;;;;;4.03;3.43;;;;;;;19.64;56.54;95314.84;4975492;28;20162;-58
2021/10/03 04:02:37;;;;;;;3.80;3.03;;;;;;;19.57;56.33;95323.25;4975201;28;20174;-58
2021/10/03 04:05:03;;;;;;;3.43;3.17;;;;;;;19.57;55.84;95315.25;4975375;28;20252;-58
2021/10/03 04:07:28;;;;;;;3.50;3.30;;;;;;;19.54;55.84;95310.56;4975315;28;20501;-54
2021/10/03 04:09:54;;;;;;;3.60;3.30;;;;;;;19.53;55.55;95302.88;4975673;28;20532;-54
2021/10/03 04:12:19;;;;;;;3.50;3.23;;;;;;;19.57;55.76;95309.16;4975467;28;20170;-59
2021/10/03 04:14:45;;;;;;;3.87;3.57;;;;;;;19.61;55.22;95313.56;4974846;28;20178;-54
2021/10/03 04:17:10;;;;;;;3.63;3.40;;;;;;;19.58;54.75;95303.53;4975276;28;20162;-58
2021/10/03 04:19:35;;;;;;;3.43;3.13;;;;;;;19.63;55.56;95305.25;4975204;28;20687;-54
2021/10/03 04:22:01;;;;;;;3.50;3.20;;;;;;;19.66;55.92;95307.31;4975109;28;20177;-54
2021/10/03 04:24:26;;;;;;;3.60;3.30;;;;;;;19.66;56.97;95300.09;4974811;28;20359;-58
2021/10/03 04:26:52;;;;;;;3.03;2.83;;;;;;;19.66;56.73;95300.09;4974932;28;20197;-58
2021/10/03 04:29:17;;;;;;;3.70;3.30;;;;;;;19.66;57.73;95302.75;4974990;28;20297;-58
2021/10/03 04:31:43;;;;;;;4.37;3.63;;;;;;;19.58;57.29;95295.53;4974980;28;20197;-54
2021/10/03 04:34:09;;;;;;;3.67;3.43;;;;;;;19.59;57.70;95296.28;4974528;28;20508;-58
2021/10/03 04:36:35;;;;;;;4.20;3.90;;;;;;;19.55;54.72;95306.78;4974951;28;20198;-58
2021/10/03 04:39:00;;;;;;;3.30;3.10;;;;;;;19.56;55.78;95291.59;4974714;28;20421;-54
2021/10/03 04:41:25;;;;;;;3.63;3.33;;;;;;;19.53;56.67;95289.56;4975132;28;20418;-54
2021/10/03 04:43:51;;;;;;;3.63;3.33;;;;;;;19.58;56.99;95279.53;4974445;28;20245;-58
2021/10/03 04:46:16;;;;;;;3.60;3.40;;;;;;;19.55;57.64;95285.47;4974559;28;20197;-54
2021/10/03 04:48:42;;;;;;;3.40;3.20;;;;;;;19.27;54.70;95286.75;4974828;28;20205;-54
2021/10/03 04:51:07;;;;;;;3.30;3.00;;;;;;;19.36;55.97;95276.94;4974721;28;20213;-54
2021/10/03 04:53:32;;;;;;;3.70;3.40;;;;;;;19.40;57.03;95275.25;4974312;28;20649;-58
2021/10/03 04:55:58;;;;;;;3.60;3.30;;;;;;;19.41;55.62;95287.44;4974502;28;20281;-54
2021/10/03 04:58:23;;;;;;;3.00;2.80;;;;;;;19.41;55.59;95282.91;4974778;28;20170;-58
2021/10/03 05:00:51;;;;;;;4.13;3.07;;;;;;;19.39;56.75;95278.97;4974780;28;20180;-54
2021/10/03 05:03:17;;;;;;;3.83;3.50;;;;;;;19.43;57.56;95272.75;4974187;28;20174;-54
2021/10/03 05:05:42;;;;;;;4.03;3.73;;;;;;;19.49;57.92;95273.38;4974356;28;20480;-58
2021/10/03 05:08:10;;;;;;;3.80;3.07;;;;;;;19.48;57.56;95274.47;4974706;28;20173;-54
2021/10/03 05:10:35;;;;;;;3.80;3.50;;;;;;;19.51;54.47;95278.41;4974453;28;20225;-58
2021/10/03 05:13:00;;;;;;;3.60;3.30;;;;;;;19.39;54.38;95271.78;4974249;28;20452;-58
2021/10/03 05:15:26;;;;;;;3.60;3.30;;;;;;;19.45;55.88;95272.44;4974507;28;20573;-58
2021/10/03 05:17:51;;;;;;;3.20;2.90;;;;;;;19.48;56.68;95285.91;4974570;28;20253;-54
2021/10/03 05:20:17;;;;;;;3.07;2.70;;;;;;;19.40;54.87;95280.56;4978051;28;20170;-58
2021/10/03 05:22:42;;;;;;;3.33;3.13;;;;;;;19.39;54.48;95281.63;4977920;28;20170;-54
2021/10/03 05:25:08;;;;;;;3.47;3.13;;;;;;;19.20;53.90;95279.16;4978360;28;20193;-58
2021/10/03 05:27:33;;;;;;;3.43;3.17;;;;;;;19.32;54.05;95283.97;4978261;28;20595;-58
2021/10/03 05:29:59;;;;;;;3.57;3.27;;;;;;;19.36;54.14;95295.59;4978310;28;20198;-54
2021/10/03 05:32:24;;;;;;;3.00;2.80;;;;;;;19.38;53.23;95290.75;4978059;28;20661;-58
2021/10/03 05:34:49;;;;;;;3.27;3.07;;;;;;;19.45;53.13;95277.75;4977652;28;20198;-54
2021/10/03 05:37:15;;;;;;;2.83;2.63;;;;;;;19.45;54.69;95281.22;4977877;28;20272;-54
2021/10/03 05:39:40;;;;;;;2.77;2.57;;;;;;;19.24;53.33;95290.78;4978399;28;20174;-60
2021/10/03 05:42:05;;;;;;;3.00;2.80;;;;;;;19.29;52.64;95284.56;4978121;28;20300;-54
2021/10/03 05:44:31;;;;;;;2.90;2.70;;;;;;;19.36;52.39;95275.06;4977696;28;20166;-54
2021/10/03 05:46:56;;;;;;;3.10;2.90;;;;;;;19.42;53.61;95275.72;4978047;28;20182;-55
2021/10/03 05:49:21;;;;;;;3.93;3.20;;;;;;;19.47;53.62;95286.22;4977785;28;20724;-54
2021/10/03 05:51:47;;;;;;;3.37;3.10;;;;;;;19.20;51.58;95289.81;4977907;28;20209;-58
2021/10/03 05:54:12;;;;;;;3.03;2.73;;;;;;;19.26;51.27;95272.63;4977515;28;20182;-54
2021/10/03 05:56:38;;;;;;;2.93;2.73;;;;;;;19.35;51.44;95283.34;4977668;28;20700;-59
2021/10/03 05:59:04;;;;;;;2.80;2.60;;;;;;;19.37;50.96;95281.16;4977817;28;20180;-53
2021/10/03 06:01:29;;;;;;;2.73;2.53;;;;;;;19.41;51.43;95274.91;4977784;28;20633;-58
2021/10/03 06:03:55;;;;;;;2.90;2.70;;;;;;;19.46;53.02;95274.78;4977233;28;20613;-54
2021/10/03 06:06:21;;;;;;;3.00;2.50;;;;;;;19.60;51.07;95289.88;4977419;28;20197;-58
2021/10/03 06:08:47;;;;;;;2.90;2.70;;;;;;;19.57;50.36;95275.28;4977803;28;20959;-54
2021/10/03 06:11:12;;;;;;;3.13;2.83;;;;;;;19.63;51.24;95281.25;4977354;28;20209;-54
2021/10/03 06:13:38;;;;;;;3.30;3.00;;;;;;;19.61;50.30;95288.78;4977172;28;20174;-54
2021/10/03 06:16:04;;;;;;;2.83;2.63;;;;;;;19.41;50.24;95295.44;4977269;28;20269;-58
2021/10/03 06:18:29;;;;;;;2.97;2.77;;;;;;;19.48;50.69;95288.59;4977395;28;20988;-54
2021/10/03 06:20:55;;;;;;;3.00;2.70;;;;;;;19.52;50.11;95291.41;4977430;28;20253;-58
2021/10/03 06:23:20;;;;;;;2.67;2.47;;;;;;;19.42;49.80;95292.47;4976722;28;20177;-54
2021/10/03 06:25:46;;;;;;;2.87;2.60;;;;;;;19.58;50.45;95281.41;4977228;28;20229;-54
2021/10/03 06:28:11;;;;;;;3.03;2.73;;;;;;;19.66;50.35;95280.66;4977255;28;20261;-58
2021/10/03 06:30:36;;;;;;;2.17;2.03;;;;;;;19.82;51.23;95273.81;4975687;28;20205;-54
2021/10/03 06:33:03;;;;;;;2.67;2.47;;;;;;;19.90;51.37;95279.16;4976806;28;20170;-58
2021/10/03 06:35:29;;;;;;;2.70;2.50;;;;;;;20.00;49.69;95270.84;4977103;28;20273;-54
2021/10/03 06:37:55;;;;;;;2.63;2.43;;;;;;;20.14;49.75;95273.38;4976829;28;20435;-54
2021/10/03 06:40:21;;;;;;;2.53;2.33;;;;;;;20.25;50.92;95277.34;4976926;28;20406;-54
2021/10/03 06:42:47;;;;;;;2.33;2.20;;;;;;;20.23;50.06;95290.22;4975393;28;20422;-58
2021/10/03 06:45:12;;;;;;;2.97;2.77;;;;;;;20.20;49.78;95288.94;4976848;28;20221;-58
2021/10/03 06:47:38;;;;;;;2.50;2.40;;;;;;;20.16;49.96;95277.31;4976863;28;20262;-58
2021/10/03 06:50:04;;;;;;;3.03;2.40;;;;;;;20.06;50.02;95282.94;4976587;28;20250;-58
2021/10/03 06:52:30;;;;;;;2.70;2.50;;;;;;;20.05;49.96;95292.06;4976905;28;20174;-58
2021/10/03 06:54:56;;;;;;;2.30;2.20;;;;;;;19.90;50.56;95281.81;4976291;28;20837;-58
2021/10/03 06:57:21;;;;;;;2.67;2.43;;;;;;;20.06;50.61;95290.16;4976774;28;20201;-58
2021/10/03 06:59:47;;;;;;;3.73;2.43;;;;;;;20.08;50.84;95294.09;4976718;28;20174;-54
2021/10/03 07:02:22;;;;;;;2.60;2.40;;;;;;;20.00;51.24;95304.75;4976721;28;20249;-58
2021/10/03 07:04:48;;;;;;;2.80;2.60;;;;;;;20.14;50.96;95295.53;4976069;28;20188;-54
2021/10/03 07:07:13;;;;;;;3.17;2.87;;;;;;;19.94;51.10;95296.09;4976465;28;20413;-58
2021/10/03 07:09:38;;;;;;;3.13;2.83;;;;;;;19.98;50.87;95291.72;4976419;28;20252;-58
2021/10/03 07:12:04;;;;;;;3.00;2.70;;;;;;;20.15;51.95;95293.63;4976479;28;20170;-54
2021/10/03 07:14:29;;;;;;;2.87;2.67;;;;;;;20.27;52.38;95296.50;4975917;28;20261;-54
2021/10/03 07:16:55;;;;;;;3.10;2.90;;;;;;;20.26;51.48;95295.72;4976259;28;20182;-54
2021/10/03 07:19:20;;;;;;;3.17;2.50;;;;;;;20.12;51.05;95292.38;4976161;28;20170;-58
2021/10/03 07:21:45;;;;;;;2.90;2.60;;;;;;;20.29;50.84;95297.75;4976256;28;20200;-54
2021/10/03 07:24:11;;;;;;;2.40;2.30;;;;;;;20.21;50.75;95292.41;4975899;28;20562;-58
2021/10/03 07:26:37;;;;;;;2.80;2.20;;;;;;;20.24;51.17;95289.91;4976105;28;20197;-59
2021/10/03 07:29:03;;;;;;;3.03;2.70;;;;;;;20.33;51.20;95293.38;4976124;28;20171;-58
2021/10/03 07:31:29;;;;;;;3.50;3.20;;;;;;;20.31;50.92;95295.56;4975759;28;20457;-54
2021/10/03 07:33:54;;;;;;;2.80;2.60;;;;;;;20.43;50.85;95301.09;4975749;28;20177;-59
2021/10/03 07:36:20;;;;;;;2.47;2.27;;;;;;;20.46;50.73;95294.31;4975688;28;20430;-58
2021/10/03 07:38:46;;;;;;;2.40;2.20;;;;;;;20.61;50.68;95303.72;4975825;28;20182;-58
2021/10/03 07:41:12;;;;;;;2.83;2.63;;;;;;;20.54;50.89;95312.22;4975589;28;20254;-54
2021/10/03 07:43:38;;;;;;;2.97;2.77;;;;;;;20.60;50.84;95299.50;4974120;28;20564;-58
2021/10/03 07:46:05;;;;;;;2.67;2.50;;;;;;;20.56;50.74;95310.03;4975523;28;20767;-54
2021/10/03 07:48:30;;;;;;;4.70;2.80;;;;;;;20.70;51.21;95309.84;4975919;28;20417;-59
2021/10/03 07:50:56;;;;;;;2.70;2.50;;;;;;;20.72;50.47;95313.78;4975366;28;20241;-58
2021/10/03 07:53:21;;;;;;;2.50;2.30;;;;;;;20.74;50.20;95316.16;4975297;28;20225;-58
2021/10/03 07:55:47;;;;;;;2.43;2.23;;;;;;;20.74;50.60;95298.25;4975424;28;20755;-58
2021/10/03 07:58:13;;;;;;;2.90;2.70;;;;;;;20.65;50.55;95302.00;4975532;28;20193;-58
2021/10/03 08:00:38;;;;;;;2.67;2.47;;;;;;;20.53;50.24;95297.28;4975457;28;20192;-58
2021/10/03 08:03:04;;;;;;;2.83;2.63;;;;;;;20.64;51.21;95289.75;4975004;28;20413;-58
2021/10/03 08:05:30;;;;;;;2.93;2.73;;;;;;;20.79;51.50;95287.41;4975295;28;20198;-58
2021/10/03 08:07:55;;;;;;;2.50;2.30;;;;;;;20.89;52.50;95297.75;4975332;28;20185;-58
2021/10/03 08:10:21;;;;;;;2.70;2.50;;;;;;;20.96;51.23;95286.59;4974080;28;20453;-54
2021/10/03 08:12:47;;;;;;;2.87;2.67;;;;;;;21.08;52.88;95286.75;4974989;28;20174;-54
2021/10/03 08:15:13;;;;;;;2.87;2.67;;;;;;;21.15;53.00;95284.38;4975140;28;20194;-58
2021/10/03 08:17:38;;;;;;;3.30;3.10;;;;;;;21.28;53.70;95283.41;4975484;28;20205;-54
2021/10/03 08:20:05;;;;;;;3.17;2.87;;;;;;;21.27;51.87;95298.63;4975430;28;20448;-58
2021/10/03 08:22:30;;;;;;;3.80;3.00;;;;;;;21.27;51.79;95295.19;4975123;28;20653;-54
2021/10/03 08:24:56;;;;;;;3.30;3.00;;;;;;;21.28;52.00;95288.75;4974536;28;20439;-54
2021/10/03 08:27:21;;;;;;;2.77;2.57;;;;;;;21.38;53.90;95293.72;4975157;28;20178;-58
2021/10/03 08:29:46;;;;;;;3.10;2.83;;;;;;;21.41;52.30;95301.13;4975221;28;20543;-54
2021/10/03 08:32:12;;;;;;;3.30;3.00;;;;;;;21.22;52.14;95300.69;4974987;28;20626;-54
2021/10/03 08:34:37;;;;;;;2.97;2.50;;;;;;;21.19;52.11;95312.03;4974594;28;20510;-54
2021/10/03 08:37:03;;;;;;;2.90;2.70;;;;;;;21.09;52.45;95315.03;4974978;28;20202;-54
2021/10/03 08:39:28;;;;;;;2.87;2.67;;;;;;;20.91;53.03;95327.59;4974936;28;20182;-54
2021/10/03 08:41:54;;;;;;;2.20;2.03;;;;;;;21.03;52.96;95318.97;4974977;28;20174;-59
2021/10/03 08:44:19;;;;;;;2.47;2.27;;;;;;;21.01;52.89;95323.84;4974393;28;20174;-54
2021/10/03 08:46:46;;;;;;;2.50;2.30;;;;;;;21.05;53.64;95308.75;4974830;28;20228;-54
2021/10/03 08:49:12;;;;;;;3.60;2.40;;;;;;;21.22;53.82;95316.72;4974895;28;20209;-59
2021/10/03 08:51:37;;;;;;;2.23;2.13;;;;;;;21.02;54.35;95333.41;4974657;28;20457;-54
2021/10/03 08:54:03;;;;;;;2.83;2.63;;;;;;;20.98;54.98;95322.56;4973471;28;20233;-59
2021/10/03 08:56:29;;;;;;;3.30;2.87;;;;;;;21.15;55.31;95313.75;4974668;28;20194;-54
2021/10/03 08:58:55;;;;;;;3.10;2.80;;;;;;;21.19;55.72;95325.38;4974609;28;20409;-54
2021/10/03 09:01:21;;;;;;;3.17;2.43;;;;;;;21.05;56.96;95316.78;4974662;28;20780;-58
2021/10/03 09:03:47;;;;;;;2.87;2.67;;;;;;;21.30;56.69;95318.59;4974358;28;20228;-54
2021/10/03 09:06:13;;;;;;;2.73;2.30;;;;;;;21.29;56.65;95333.06;4974605;28;20433;-54
2021/10/03 09:08:42;;;;;;;12.03;4.60;;;;;;;21.34;57.23;95325.66;4974515;28;20182;-59
2021/10/03 09:11:16;;;;;;;2.60;2.50;;;;;;;21.41;56.69;95301.88;4974571;28;20208;-58
2021/10/03 09:13:48;;;;;;;3.30;2.80;;;;;;;21.48;57.03;95310.22;4974327;28;20814;-54
2021/10/03 09:16:25;;;;;;;3.00;2.70;;;;;;;21.62;57.94;95312.69;4974583;28;20450;-54
2021/10/03 09:19:02;;;;;;;2.70;2.50;;;;;;;21.70;59.63;95303.06;4974497;28;20409;-54
2021/10/03 09:21:34;;;;;;;2.90;2.70;;;;;;;21.75;57.21;95300.19;4974510;28;20797;-59
2021/10/03 09:23:59;;;;;;;3.27;3.03;;;;;;;21.67;55.06;95295.69;4974015;28;20909;-54
2021/10/03 09:26:25;;;;;;;2.80;2.60;;;;;;;21.71;55.70;95294.69;4974181;28;20441;-58
2021/10/03 09:28:51;;;;;;;2.97;2.63;;;;;;;21.77;55.70;95301.44;4974395;28;20236;-54
2021/10/03 09:31:17;;;;;;;3.17;2.93;;;;;;;21.78;56.34;95297.66;4974418;28;21044;-59
2021/10/03 09:33:49;;;;;;;3.40;3.17;;;;;;;21.86;56.53;95299.53;4974014;28;20170;-59
2021/10/03 09:36:20;;;;;;;3.20;2.90;;;;;;;21.87;56.32;95306.44;4974050;28;20441;-54
2021/10/03 09:38:45;;;;;;;2.70;2.50;;;;;;;21.87;55.71;95303.00;4974188;28;20422;-59
2021/10/03 09:41:11;;;;;;;2.93;2.73;;;;;;;21.86;55.46;95294.19;4972964;28;20414;-54
2021/10/03 09:43:41;;;;;;;5.60;2.40;;;;;;;21.74;54.97;95299.41;4973887;28;20186;-58
2021/10/03 09:46:06;;;;;;;2.93;2.73;;;;;;;21.85;55.76;95303.31;4974163;28;20217;-54
2021/10/03 09:48:49;;;;;;;2.77;2.40;;;;;;;21.92;56.00;95297.47;4974324;28;20441;-59
2021/10/03 09:51:16;;;;;;;2.60;2.40;;;;;;;21.83;55.61;95310.13;4973984;28;20210;-58
2021/10/03 09:53:43;;;;;;;4.20;2.80;;;;;;;21.91;55.90;95310.06;4974008;28;20426;-58
2021/10/03 09:56:09;;;;;;;3.13;2.83;;;;;;;22.03;55.98;95309.38;4973954;28;20442;-59
2021/10/03 09:58:34;;;;;;;3.20;2.67;;;;;;;22.07;56.82;95312.94;4974090;28;20963;-54
2021/10/03 10:01:00;;;;;;;2.70;2.50;;;;;;;22.07;56.43;95323.66;4974245;28;20178;-59
2021/10/03 10:03:25;;;;;;;2.80;2.60;;;;;;;22.08;56.22;95319.88;4973705;28;20174;-58
2021/10/03 10:05:52;;;;;;;2.90;2.70;;;;;;;22.16;55.29;95325.19;4976562;28;20277;-59
2021/10/03 10:08:17;;;;;;;2.73;2.57;;;;;;;22.17;55.67;95321.41;4977634;28;20645;-54
2021/10/03 10:10:42;;;;;;;2.93;2.73;;;;;;;22.13;54.84;95322.38;4977433;28;20456;-54
2021/10/03 10:13:17;;;;;;;2.73;2.53;;;;;;;22.23;55.72;95309.41;4977126;28;20174;-54
2021/10/03 10:15:42;;;;;;;2.67;2.47;;;;;;;22.30;56.71;95311.56;4977319;28;20644;-58
2021/10/03 10:18:25;;;;;;;3.13;2.90;;;;;;;22.36;57.29;95312.94;4977497;28;20413;-54
2021/10/03 10:20:53;;;;;;;3.63;3.00;;;;;;;22.42;57.19;95317.78;4977326;28;20631;-54
2021/10/03 10:23:28;;;;;;;4.23;2.90;;;;;;;22.48;56.44;95307.66;4976921;28;20441;-59
2021/10/03 10:25:57;;;;;;;3.07;2.50;;;;;;;22.45;55.19;95325.16;4977221;28;20440;-60
2021/10/03 10:28:28;;;;;;;2.60;2.40;;;;;;;22.38;54.36;95314.19;4977193;28;20410;-58
2021/10/03 10:31:04;;;;;;;2.33;2.13;;;;;;;22.29;54.42;95310.78;4977172;28;20465;-59
2021/10/03 10:33:52;;;;;;;2.80;2.60;;;;;;;22.39;54.53;95307.72;4976847;28;20413;-54
2021/10/03 10:36:30;;;;;;;2.90;2.70;;;;;;;22.37;54.17;95307.25;4976992;28;21018;-54
2021/10/03 10:39:07;;;;;;;3.10;2.73;;;;;;;22.37;54.46;95323.31;4976806;28;20424;-54
2021/10/03 10:41:46;;;;;;;2.97;2.77;;;;;;;22.32;54.70;95304.00;4976776;28;20413;-59
2021/10/03 10:44:24;;;;;;;2.83;2.63;;;;;;;22.34;55.20;95320.50;4976723;28;20412;-59
2021/10/03 10:47:00;;;;;;;2.90;2.70;;;;;;;22.10;54.89;95305.06;4976670;28;21018;-54
2021/10/03 10:49:28;;;;;;;3.57;3.27;;;;;;;22.14;55.63;95318.59;4976594;28;20417;-58
2021/10/03 10:52:18;;;;;;;2.83;2.63;;;;;;;22.05;55.10;95315.97;4976573;28;20949;-54
2021/10/03 10:54:59;;;;;;;4.40;2.73;;;;;;;21.98;55.21;95298.84;4976286;28;20405;-54
2021/10/03 10:57:25;;;;;;;2.63;2.43;;;;;;;22.13;55.54;95317.81;4976664;28;20950;-55
2021/10/03 11:00:20;;;;;;;2.43;2.23;;;;;;;21.98;56.12;95307.66;4977095;28;20421;-59
2021/10/03 11:02:54;;;;;;;2.80;2.60;;;;;;;22.17;56.06;95291.97;4976260;28;20414;-54
2021/10/03 11:05:34;;;;;;;2.93;2.60;;;;;;;22.18;56.04;95312.28;4976598;28;20887;-54
2021/10/03 11:08:05;;;;;;;2.90;2.70;;;;;;;21.96;57.18;95315.22;4976450;28;20429;-54
2021/10/03 11:10:31;;;;;;;3.93;3.63;;;;;;;22.12;57.20;95289.47;4976065;28;20449;-54
2021/10/03 11:12:56;;;;;;;3.37;3.10;;;;;;;22.29;58.43;95285.91;4976039;28;20413;-58
2021/10/03 11:15:26;;;;;;;8.63;3.40;;;;;;;21.97;57.34;95316.81;4976433;28;20194;-58
2021/10/03 11:17:52;;;;;;;3.10;2.90;;;;;;;22.08;58.15;95303.84;4975689;28;20502;-59
2021/10/03 11:20:17;;;;;;;3.60;3.30;;;;;;;22.15;58.23;95288.84;4976192;28;20409;-55
2021/10/03 11:22:44;;;;;;;3.20;3.00;;;;;;;22.09;58.57;95306.19;4975913;28;20166;-58
2021/10/03 11:25:16;;;;;;;3.83;3.53;;;;;;;22.21;58.21;95311.59;4976171;28;20194;-58
2021/10/03 11:27:42;;;;;;;3.30;3.10;;;;;;;22.33;57.58;95298.31;4976009;28;20744;-58
2021/10/03 11:30:08;;;;;;;3.27;3.00;;;;;;;22.19;57.21;95303.13;4975948;28;20463;-54
2021/10/03 11:32:38;;;;;;;3.13;2.93;;;;;;;22.15;56.75;95296.06;4975902;28;20704;-54